首页
METAR-TAF:

METAR-TAF

机场 :

石油平台

D15-fa-1, 荷兰

纬度: 54-19-32N, 经度: 2-56-09E, 海拔: 36米

当前天气观测

该预报发布于43分钟前的08:25 UTC
风速12节,风向西转西南
温度 13°C
湿度 67%
气压 1006 hPa
能见度10公里或以上

METAR: EHDV 170825Z AUTO 24012KT 9999 FEW025/// SCT035/// 13/07 Q1006 W///H///

时间: 11:08 (09:08 UTC)


TAF: 丢失

超过4000个机场的气象观测和天气预报(METAR&TAF报告)。

可查询的气象台以黄色和红色小点在地图上表示。

将鼠标移到小点上方,可查看气象台名称。

然后点击查看天气观测和预报。

如需切换地图:点击带黑十字的绿色按钮放大地图;点击带横线的绿色按钮缩小地图;或者点击绿色箭头查看邻近地区的地图。


METAR-TAF: